sensor_id;sensor_type;location;lat;lon;timestamp;pressure;altitude;pressure_sealevel;temperature;humidity
55271;BME280;41132;47.162;9.470;2022-09-24T00:01:36;96349.88;;;12.48;100.00
55271;BME280;41132;47.162;9.470;2022-09-24T00:04:07;96346.25;;;12.49;100.00
55271;BME280;41132;47.162;9.470;2022-09-24T00:06:36;96345.75;;;12.53;100.00
55271;BME280;41132;47.162;9.470;2022-09-24T00:09:02;96343.22;;;12.60;100.00
55271;BME280;41132;47.162;9.470;2022-09-24T00:11:28;96346.22;;;12.57;100.00
55271;BME280;41132;47.162;9.470;2022-09-24T00:13:55;96338.69;;;12.46;100.00
55271;BME280;41132;47.162;9.470;2022-09-24T00:16:22;96339.19;;;12.49;100.00
55271;BME280;41132;47.162;9.470;2022-09-24T00:18:50;96334.91;;;12.48;100.00
55271;BME280;41132;47.162;9.470;2022-09-24T00:21:21;96329.69;;;12.40;100.00
55271;BME280;41132;47.162;9.470;2022-09-24T00:23:49;96332.31;;;12.40;100.00
55271;BME280;41132;47.162;9.470;2022-09-24T00:26:15;96330.66;;;12.47;100.00
55271;BME280;41132;47.162;9.470;2022-09-24T00:28:59;96331.97;;;12.43;100.00
55271;BME280;41132;47.162;9.470;2022-09-24T00:31:25;96339.50;;;12.54;100.00
55271;BME280;41132;47.162;9.470;2022-09-24T00:33:51;96341.47;;;12.52;100.00
55271;BME280;41132;47.162;9.470;2022-09-24T00:36:18;96326.56;;;12.37;100.00
55271;BME280;41132;47.162;9.470;2022-09-24T00:38:50;96322.16;;;12.29;100.00
55271;BME280;41132;47.162;9.470;2022-09-24T00:41:17;96328.69;;;12.41;100.00
55271;BME280;41132;47.162;9.470;2022-09-24T00:43:44;96329.84;;;12.39;100.00
55271;BME280;41132;47.162;9.470;2022-09-24T00:48:46;96330.00;;;12.37;100.00
55271;BME280;41132;47.162;9.470;2022-09-24T00:51:16;96324.09;;;12.35;100.00
55271;BME280;41132;47.162;9.470;2022-09-24T00:53:45;96323.69;;;12.54;100.00
55271;BME280;41132;47.162;9.470;2022-09-24T00:56:12;96318.44;;;12.54;100.00
55271;BME280;41132;47.162;9.470;2022-09-24T00:58:47;96309.84;;;12.61;100.00
55271;BME280;41132;47.162;9.470;2022-09-24T01:01:17;96300.56;;;12.73;100.00
55271;BME280;41132;47.162;9.470;2022-09-24T01:03:44;96296.81;;;12.67;100.00
55271;BME280;41132;47.162;9.470;2022-09-24T01:06:10;96286.81;;;12.63;100.00
55271;BME280;41132;47.162;9.470;2022-09-24T01:08:36;96272.53;;;12.49;100.00
55271;BME280;41132;47.162;9.470;2022-09-24T01:11:15;96285.41;;;12.44;100.00
55271;BME280;41132;47.162;9.470;2022-09-24T01:13:52;96268.59;;;12.53;100.00
55271;BME280;41132;47.162;9.470;2022-09-24T01:19:24;96266.16;;;12.74;100.00
55271;BME280;41132;47.162;9.470;2022-09-24T01:21:57;96265.63;;;12.79;100.00
55271;BME280;41132;47.162;9.470;2022-09-24T01:27:09;96262.19;;;12.79;100.00
55271;BME280;41132;47.162;9.470;2022-09-24T01:29:57;96250.13;;;12.61;100.00
55271;BME280;41132;47.162;9.470;2022-09-24T01:32:39;96267.25;;;12.57;100.00
55271;BME280;41132;47.162;9.470;2022-09-24T01:35:22;96264.84;;;12.47;100.00
55271;BME280;41132;47.162;9.470;2022-09-24T01:37:54;96269.63;;;12.44;100.00
55271;BME280;41132;47.162;9.470;2022-09-24T01:40:23;96270.25;;;12.54;100.00
55271;BME280;41132;47.162;9.470;2022-09-24T01:42:51;96258.94;;;12.45;100.00
55271;BME280;41132;47.162;9.470;2022-09-24T01:45:19;96258.56;;;12.48;100.00
55271;BME280;41132;47.162;9.470;2022-09-24T01:47:45;96264.06;;;12.39;100.00
55271;BME280;41132;47.162;9.470;2022-09-24T01:50:13;96272.63;;;12.32;100.00
55271;BME280;41132;47.162;9.470;2022-09-24T01:52:47;96265.09;;;12.29;100.00
55271;BME280;41132;47.162;9.470;2022-09-24T01:55:16;96256.53;;;12.36;100.00
55271;BME280;41132;47.162;9.470;2022-09-24T01:57:55;96261.31;;;12.32;100.00
55271;BME280;41132;47.162;9.470;2022-09-24T02:00:23;96259.22;;;12.19;100.00
55271;BME280;41132;47.162;9.470;2022-09-24T02:02:57;96256.78;;;12.18;100.00
55271;BME280;41132;47.162;9.470;2022-09-24T02:05:36;96243.09;;;12.22;100.00
55271;BME280;41132;47.162;9.470;2022-09-24T02:08:04;96254.31;;;12.16;100.00
55271;BME280;41132;47.162;9.470;2022-09-24T02:10:37;96273.16;;;12.28;100.00
55271;BME280;41132;47.162;9.470;2022-09-24T02:13:09;96275.69;;;12.13;100.00
55271;BME280;41132;47.162;9.470;2022-09-24T02:15:41;96254.69;;;12.05;100.00
55271;BME280;41132;47.162;9.470;2022-09-24T02:18:09;96275.50;;;12.23;100.00
55271;BME280;41132;47.162;9.470;2022-09-24T02:20:37;96269.22;;;12.24;100.00
55271;BME280;41132;47.162;9.470;2022-09-24T02:23:05;96274.97;;;12.27;100.00
55271;BME280;41132;47.162;9.470;2022-09-24T02:25:37;96272.72;;;12.16;100.00
55271;BME280;41132;47.162;9.470;2022-09-24T02:28:04;96273.88;;;12.14;100.00
55271;BME280;41132;47.162;9.470;2022-09-24T02:30:37;96262.53;;;12.13;100.00
55271;BME280;41132;47.162;9.470;2022-09-24T02:33:06;96247.75;;;12.12;100.00
55271;BME280;41132;47.162;9.470;2022-09-24T02:35:53;96237.13;;;12.28;100.00
55271;BME280;41132;47.162;9.470;2022-09-24T02:38:18;96228.41;;;12.28;100.00
55271;BME280;41132;47.162;9.470;2022-09-24T02:40:44;96235.06;;;12.47;100.00
55271;BME280;41132;47.162;9.470;2022-09-24T02:43:09;96231.31;;;12.41;100.00
55271;BME280;41132;47.162;9.470;2022-09-24T02:45:34;96211.38;;;12.47;100.00
55271;BME280;41132;47.162;9.470;2022-09-24T02:48:00;96223.50;;;12.56;100.00
55271;BME280;41132;47.162;9.470;2022-09-24T02:50:25;96209.44;;;12.41;100.00
55271;BME280;41132;47.162;9.470;2022-09-24T02:52:51;96205.69;;;12.35;100.00
55271;BME280;41132;47.162;9.470;2022-09-24T02:55:17;96217.50;;;12.39;100.00
55271;BME280;41132;47.162;9.470;2022-09-24T02:57:42;96212.25;;;12.39;100.00
55271;BME280;41132;47.162;9.470;2022-09-24T03:00:08;96191.38;;;12.38;100.00
55271;BME280;41132;47.162;9.470;2022-09-24T03:02:34;96198.78;;;12.34;100.00
55271;BME280;41132;47.162;9.470;2022-09-24T03:04:59;96201.78;;;12.31;100.00
55271;BME280;41132;47.162;9.470;2022-09-24T03:07:24;96202.81;;;12.22;100.00
55271;BME280;41132;47.162;9.470;2022-09-24T03:09:50;96194.16;;;12.13;100.00
55271;BME280;41132;47.162;9.470;2022-09-24T03:12:15;96199.06;;;12.16;100.00
55271;BME280;41132;47.162;9.470;2022-09-24T03:14:40;96192.28;;;12.22;100.00
55271;BME280;41132;47.162;9.470;2022-09-24T03:17:06;96192.38;;;12.05;100.00
55271;BME280;41132;47.162;9.470;2022-09-24T03:19:31;96194.47;;;12.10;100.00
55271;BME280;41132;47.162;9.470;2022-09-24T03:21:56;96199.31;;;12.29;100.00
55271;BME280;41132;47.162;9.470;2022-09-24T03:24:22;96188.28;;;12.03;100.00
55271;BME280;41132;47.162;9.470;2022-09-24T03:26:47;96192.97;;;12.16;100.00
55271;BME280;41132;47.162;9.470;2022-09-24T03:29:12;96201.03;;;12.14;100.00
55271;BME280;41132;47.162;9.470;2022-09-24T03:31:37;96200.34;;;12.20;100.00
55271;BME280;41132;47.162;9.470;2022-09-24T03:34:03;96199.56;;;12.11;100.00
55271;BME280;41132;47.162;9.470;2022-09-24T03:36:28;96208.13;;;12.05;100.00
55271;BME280;41132;47.162;9.470;2022-09-24T03:38:55;96194.31;;;12.11;100.00
55271;BME280;41132;47.162;9.470;2022-09-24T03:41:22;96206.97;;;12.08;100.00
55271;BME280;41132;47.162;9.470;2022-09-24T03:43:47;96193.31;;;12.12;100.00
55271;BME280;41132;47.162;9.470;2022-09-24T03:46:13;96200.44;;;12.04;100.00
55271;BME280;41132;47.162;9.470;2022-09-24T03:48:40;96187.03;;;11.90;100.00
55271;BME280;41132;47.162;9.470;2022-09-24T03:51:11;96182.34;;;12.01;100.00
55271;BME280;41132;47.162;9.470;2022-09-24T03:53:37;96183.94;;;12.10;100.00
55271;BME280;41132;47.162;9.470;2022-09-24T03:56:04;96186.59;;;12.10;100.00
55271;BME280;41132;47.162;9.470;2022-09-24T03:58:31;96170.41;;;12.21;100.00
55271;BME280;41132;47.162;9.470;2022-09-24T04:01:00;96168.28;;;12.17;100.00
55271;BME280;41132;47.162;9.470;2022-09-24T04:03:25;96155.13;;;11.94;100.00
55271;BME280;41132;47.162;9.470;2022-09-24T04:05:51;96167.59;;;12.00;100.00
55271;BME280;41132;47.162;9.470;2022-09-24T04:08:17;96166.38;;;12.10;100.00
55271;BME280;41132;47.162;9.470;2022-09-24T04:10:47;96167.88;;;12.05;100.00
55271;BME280;41132;47.162;9.470;2022-09-24T04:13:13;96159.00;;;12.06;100.00
55271;BME280;41132;47.162;9.470;2022-09-24T04:15:39;96158.81;;;12.07;100.00
55271;BME280;41132;47.162;9.470;2022-09-24T04:18:05;96170.00;;;12.09;100.00
55271;BME280;41132;47.162;9.470;2022-09-24T04:20:30;96171.28;;;12.14;100.00
55271;BME280;41132;47.162;9.470;2022-09-24T04:22:57;96170.50;;;12.05;100.00
55271;BME280;41132;47.162;9.470;2022-09-24T04:25:25;96174.78;;;12.06;100.00
55271;BME280;41132;47.162;9.470;2022-09-24T04:27:59;96177.09;;;12.01;100.00
55271;BME280;41132;47.162;9.470;2022-09-24T04:30:26;96173.13;;;12.05;100.00
55271;BME280;41132;47.162;9.470;2022-09-24T04:32:52;96157.22;;;11.98;100.00
55271;BME280;41132;47.162;9.470;2022-09-24T04:35:22;96156.72;;;12.03;100.00
55271;BME280;41132;47.162;9.470;2022-09-24T04:37:47;96153.56;;;12.07;100.00
55271;BME280;41132;47.162;9.470;2022-09-24T04:40:14;96153.78;;;11.98;100.00
55271;BME280;41132;47.162;9.470;2022-09-24T04:42:41;96160.47;;;12.08;100.00
55271;BME280;41132;47.162;9.470;2022-09-24T04:45:07;96158.00;;;12.07;100.00
55271;BME280;41132;47.162;9.470;2022-09-24T04:47:34;96164.44;;;12.04;100.00
55271;BME280;41132;47.162;9.470;2022-09-24T04:50:00;96164.47;;;11.96;100.00
55271;BME280;41132;47.162;9.470;2022-09-24T04:52:27;96165.19;;;11.90;100.00
55271;BME280;41132;47.162;9.470;2022-09-24T04:54:54;96162.44;;;12.06;100.00
55271;BME280;41132;47.162;9.470;2022-09-24T04:57:22;96143.13;;;11.91;100.00
55271;BME280;41132;47.162;9.470;2022-09-24T04:59:47;96143.78;;;11.85;100.00
55271;BME280;41132;47.162;9.470;2022-09-24T05:02:13;96170.81;;;12.10;100.00
55271;BME280;41132;47.162;9.470;2022-09-24T05:04:38;96163.94;;;12.01;100.00
55271;BME280;41132;47.162;9.470;2022-09-24T05:07:04;96162.84;;;11.95;100.00
55271;BME280;41132;47.162;9.470;2022-09-24T05:09:29;96167.28;;;11.95;100.00
55271;BME280;41132;47.162;9.470;2022-09-24T05:11:58;96155.31;;;11.76;100.00
55271;BME280;41132;47.162;9.470;2022-09-24T05:14:24;96154.53;;;11.67;100.00
55271;BME280;41132;47.162;9.470;2022-09-24T05:16:49;96160.72;;;11.82;100.00
55271;BME280;41132;47.162;9.470;2022-09-24T05:19:15;96156.28;;;11.83;100.00
55271;BME280;41132;47.162;9.470;2022-09-24T05:21:40;96163.72;;;11.79;100.00
55271;BME280;41132;47.162;9.470;2022-09-24T05:24:06;96168.16;;;11.79;100.00
55271;BME280;41132;47.162;9.470;2022-09-24T05:26:31;96173.94;;;11.74;100.00
55271;BME280;41132;47.162;9.470;2022-09-24T05:29:15;96185.41;;;11.73;100.00
55271;BME280;41132;47.162;9.470;2022-09-24T05:31:40;96174.38;;;11.78;100.00
55271;BME280;41132;47.162;9.470;2022-09-24T05:34:05;96178.63;;;11.87;100.00
55271;BME280;41132;47.162;9.470;2022-09-24T05:36:31;96182.56;;;11.83;100.00
55271;BME280;41132;47.162;9.470;2022-09-24T05:38:56;96189.97;;;11.87;100.00
55271;BME280;41132;47.162;9.470;2022-09-24T05:41:22;96185.69;;;11.95;100.00
55271;BME280;41132;47.162;9.470;2022-09-24T05:43:47;96183.38;;;12.00;100.00
55271;BME280;41132;47.162;9.470;2022-09-24T05:46:13;96181.38;;;12.02;100.00
55271;BME280;41132;47.162;9.470;2022-09-24T05:48:38;96190.75;;;12.04;100.00
55271;BME280;41132;47.162;9.470;2022-09-24T05:51:03;96187.28;;;12.04;100.00
55271;BME280;41132;47.162;9.470;2022-09-24T05:53:30;96185.59;;;12.11;100.00
55271;BME280;41132;47.162;9.470;2022-09-24T05:55:55;96193.78;;;12.16;100.00
55271;BME280;41132;47.162;9.470;2022-09-24T05:58:21;96188.44;;;12.01;100.00
55271;BME280;41132;47.162;9.470;2022-09-24T06:00:47;96193.38;;;12.04;100.00
55271;BME280;41132;47.162;9.470;2022-09-24T06:03:14;96194.91;;;11.90;100.00
55271;BME280;41132;47.162;9.470;2022-09-24T06:05:48;96197.53;;;11.90;100.00
55271;BME280;41132;47.162;9.470;2022-09-24T06:08:15;96195.94;;;11.73;100.00
55271;BME280;41132;47.162;9.470;2022-09-24T06:10:44;96192.31;;;11.74;100.00
55271;BME280;41132;47.162;9.470;2022-09-24T06:13:12;96201.63;;;11.85;100.00
55271;BME280;41132;47.162;9.470;2022-09-24T06:15:41;96204.41;;;12.00;100.00
55271;BME280;41132;47.162;9.470;2022-09-24T06:18:07;96201.63;;;11.85;100.00
55271;BME280;41132;47.162;9.470;2022-09-24T06:20:33;96197.50;;;11.99;100.00
55271;BME280;41132;47.162;9.470;2022-09-24T06:22:59;96200.31;;;11.97;100.00
55271;BME280;41132;47.162;9.470;2022-09-24T06:25:25;96217.38;;;12.01;100.00
55271;BME280;41132;47.162;9.470;2022-09-24T06:27:58;96215.84;;;12.15;100.00
55271;BME280;41132;47.162;9.470;2022-09-24T06:30:37;96211.56;;;12.14;100.00
55271;BME280;41132;47.162;9.470;2022-09-24T06:33:10;96216.13;;;12.20;100.00
55271;BME280;41132;47.162;9.470;2022-09-24T06:35:38;96217.75;;;12.21;100.00
55271;BME280;41132;47.162;9.470;2022-09-24T06:38:04;96234.03;;;12.25;100.00
55271;BME280;41132;47.162;9.470;2022-09-24T06:40:30;96234.34;;;12.30;100.00
55271;BME280;41132;47.162;9.470;2022-09-24T06:42:56;96235.66;;;12.26;100.00
55271;BME280;41132;47.162;9.470;2022-09-24T06:45:22;96234.28;;;12.07;100.00
55271;BME280;41132;47.162;9.470;2022-09-24T06:47:56;96241.69;;;12.03;100.00
55271;BME280;41132;47.162;9.470;2022-09-24T06:50:23;96236.13;;;11.98;100.00
55271;BME280;41132;47.162;9.470;2022-09-24T06:52:48;96241.81;;;12.10;100.00
55271;BME280;41132;47.162;9.470;2022-09-24T06:55:14;96250.94;;;11.91;100.00
55271;BME280;41132;47.162;9.470;2022-09-24T06:57:40;96245.88;;;11.65;100.00
55271;BME280;41132;47.162;9.470;2022-09-24T07:00:06;96259.66;;;11.91;100.00
55271;BME280;41132;47.162;9.470;2022-09-24T07:02:31;96247.50;;;11.90;100.00
55271;BME280;41132;47.162;9.470;2022-09-24T07:04:57;96253.88;;;11.96;100.00
55271;BME280;41132;47.162;9.470;2022-09-24T07:07:22;96265.19;;;12.05;100.00
55271;BME280;41132;47.162;9.470;2022-09-24T07:09:56;96259.56;;;12.16;100.00
55271;BME280;41132;47.162;9.470;2022-09-24T07:12:22;96257.72;;;12.25;100.00
55271;BME280;41132;47.162;9.470;2022-09-24T07:14:48;96259.53;;;12.24;100.00
55271;BME280;41132;47.162;9.470;2022-09-24T07:17:14;96257.88;;;12.23;100.00
55271;BME280;41132;47.162;9.470;2022-09-24T07:19:39;96265.78;;;12.23;100.00
55271;BME280;41132;47.162;9.470;2022-09-24T07:22:05;96258.97;;;12.37;100.00
55271;BME280;41132;47.162;9.470;2022-09-24T07:24:30;96247.75;;;12.43;100.00
55271;BME280;41132;47.162;9.470;2022-09-24T07:26:55;96242.25;;;12.53;100.00
55271;BME280;41132;47.162;9.470;2022-09-24T07:29:21;96260.38;;;12.79;100.00
55271;BME280;41132;47.162;9.470;2022-09-24T07:31:46;96257.44;;;12.74;100.00
55271;BME280;41132;47.162;9.470;2022-09-24T07:34:12;96264.34;;;12.75;100.00
55271;BME280;41132;47.162;9.470;2022-09-24T07:36:39;96267.50;;;12.70;100.00
55271;BME280;41132;47.162;9.470;2022-09-24T07:39:04;96253.84;;;12.67;100.00
55271;BME280;41132;47.162;9.470;2022-09-24T07:41:30;96258.94;;;12.68;100.00
55271;BME280;41132;47.162;9.470;2022-09-24T07:43:56;96262.06;;;12.72;100.00
55271;BME280;41132;47.162;9.470;2022-09-24T07:46:21;96271.63;;;12.65;100.00
55271;BME280;41132;47.162;9.470;2022-09-24T07:48:47;96279.94;;;12.53;100.00
55271;BME280;41132;47.162;9.470;2022-09-24T07:51:13;96280.41;;;12.57;100.00
55271;BME280;41132;47.162;9.470;2022-09-24T07:53:38;96274.78;;;12.60;100.00
55271;BME280;41132;47.162;9.470;2022-09-24T07:56:04;96265.63;;;12.56;100.00
55271;BME280;41132;47.162;9.470;2022-09-24T07:58:30;96272.16;;;12.60;100.00
55271;BME280;41132;47.162;9.470;2022-09-24T08:01:01;96268.84;;;12.66;100.00
55271;BME280;41132;47.162;9.470;2022-09-24T08:03:27;96282.41;;;12.78;100.00
55271;BME280;41132;47.162;9.470;2022-09-24T08:05:52;96271.63;;;12.65;100.00
55271;BME280;41132;47.162;9.470;2022-09-24T08:08:22;96271.44;;;12.74;100.00
55271;BME280;41132;47.162;9.470;2022-09-24T08:10:48;96281.47;;;12.94;100.00
55271;BME280;41132;47.162;9.470;2022-09-24T08:13:13;96274.94;;;12.90;100.00
55271;BME280;41132;47.162;9.470;2022-09-24T08:15:39;96270.19;;;12.85;100.00
55271;BME280;41132;47.162;9.470;2022-09-24T08:18:05;96291.72;;;12.89;100.00
55271;BME280;41132;47.162;9.470;2022-09-24T08:20:33;96297.38;;;12.86;100.00
55271;BME280;41132;47.162;9.470;2022-09-24T08:23:05;96300.44;;;12.89;100.00
55271;BME280;41132;47.162;9.470;2022-09-24T08:25:31;96290.91;;;12.88;100.00
55271;BME280;41132;47.162;9.470;2022-09-24T08:28:04;96286.50;;;12.81;100.00
55271;BME280;41132;47.162;9.470;2022-09-24T08:30:30;96271.66;;;12.88;100.00
55271;BME280;41132;47.162;9.470;2022-09-24T08:32:56;96290.31;;;13.01;100.00
55271;BME280;41132;47.162;9.470;2022-09-24T08:35:22;96283.19;;;13.10;100.00
55271;BME280;41132;47.162;9.470;2022-09-24T08:37:48;96276.94;;;13.11;100.00
55271;BME280;41132;47.162;9.470;2022-09-24T08:40:19;96286.84;;;13.24;100.00
55271;BME280;41132;47.162;9.470;2022-09-24T08:43:12;96273.41;;;13.19;100.00
55271;BME280;41132;47.162;9.470;2022-09-24T08:45:47;96269.13;;;13.41;100.00
55271;BME280;41132;47.162;9.470;2022-09-24T08:48:35;96266.03;;;13.37;100.00
55271;BME280;41132;47.162;9.470;2022-09-24T08:51:06;96259.94;;;13.36;100.00
55271;BME280;41132;47.162;9.470;2022-09-24T08:56:20;96272.69;;;13.48;100.00
55271;BME280;41132;47.162;9.470;2022-09-24T09:01:32;96269.13;;;13.55;100.00
55271;BME280;41132;47.162;9.470;2022-09-24T09:04:15;96262.63;;;13.51;100.00
55271;BME280;41132;47.162;9.470;2022-09-24T09:09:19;96261.97;;;13.64;100.00
55271;BME280;41132;47.162;9.470;2022-09-24T09:12:03;96266.06;;;13.67;100.00
55271;BME280;41132;47.162;9.470;2022-09-24T09:20:00;96252.72;;;13.83;100.00
55271;BME280;41132;47.162;9.470;2022-09-24T09:22:39;96261.44;;;13.84;100.00
55271;BME280;41132;47.162;9.470;2022-09-24T09:25:23;96256.28;;;13.90;100.00
55271;BME280;41132;47.162;9.470;2022-09-24T09:27:59;96257.81;;;13.99;100.00
55271;BME280;41132;47.162;9.470;2022-09-24T09:30:31;96242.06;;;13.91;100.00
55271;BME280;41132;47.162;9.470;2022-09-24T09:33:12;96243.34;;;13.81;100.00
55271;BME280;41132;47.162;9.470;2022-09-24T09:38:24;96251.97;;;13.89;100.00
55271;BME280;41132;47.162;9.470;2022-09-24T09:41:19;96257.97;;;13.98;100.00
55271;BME280;41132;47.162;9.470;2022-09-24T09:43:48;96243.97;;;13.97;100.00
55271;BME280;41132;47.162;9.470;2022-09-24T09:46:26;96243.59;;;14.00;100.00
55271;BME280;41132;47.162;9.470;2022-09-24T09:48:59;96241.34;;;13.97;100.00
55271;BME280;41132;47.162;9.470;2022-09-24T09:51:31;96241.59;;;14.03;100.00
55271;BME280;41132;47.162;9.470;2022-09-24T09:54:02;96236.50;;;14.01;100.00
55271;BME280;41132;47.162;9.470;2022-09-24T09:56:30;96236.97;;;14.19;100.00
55271;BME280;41132;47.162;9.470;2022-09-24T09:59:06;96240.13;;;14.30;100.00
55271;BME280;41132;47.162;9.470;2022-09-24T10:01:33;96229.06;;;14.41;100.00
55271;BME280;41132;47.162;9.470;2022-09-24T10:04:01;96242.31;;;14.26;100.00
55271;BME280;41132;47.162;9.470;2022-09-24T10:06:31;96240.72;;;14.47;100.00
55271;BME280;41132;47.162;9.470;2022-09-24T10:09:17;96234.34;;;14.56;100.00
55271;BME280;41132;47.162;9.470;2022-09-24T10:11:46;96228.13;;;14.64;100.00
55271;BME280;41132;47.162;9.470;2022-09-24T10:14:13;96234.84;;;14.66;100.00
55271;BME280;41132;47.162;9.470;2022-09-24T10:16:45;96229.06;;;14.56;100.00
55271;BME280;41132;47.162;9.470;2022-09-24T10:19:24;96232.72;;;14.55;100.00
55271;BME280;41132;47.162;9.470;2022-09-24T10:21:52;96231.41;;;14.87;100.00
55271;BME280;41132;47.162;9.470;2022-09-24T10:24:20;96239.09;;;14.82;100.00
55271;BME280;41132;47.162;9.470;2022-09-24T10:26:47;96236.31;;;14.69;100.00
55271;BME280;41132;47.162;9.470;2022-09-24T10:29:17;96235.09;;;14.71;100.00
55271;BME280;41132;47.162;9.470;2022-09-24T10:32:03;96231.81;;;14.69;100.00
55271;BME280;41132;47.162;9.470;2022-09-24T10:34:30;96233.31;;;14.72;100.00
55271;BME280;41132;47.162;9.470;2022-09-24T10:37:02;96231.72;;;14.77;100.00
55271;BME280;41132;47.162;9.470;2022-09-24T10:39:29;96228.44;;;14.75;100.00
55271;BME280;41132;47.162;9.470;2022-09-24T10:41:56;96226.81;;;14.74;100.00
55271;BME280;41132;47.162;9.470;2022-09-24T10:44:23;96221.91;;;14.71;100.00
55271;BME280;41132;47.162;9.470;2022-09-24T10:46:56;96230.84;;;14.70;100.00
55271;BME280;41132;47.162;9.470;2022-09-24T10:55:43;96230.59;;;14.87;100.00
55271;BME280;41132;47.162;9.470;2022-09-24T10:58:31;96234.28;;;14.71;100.00
55271;BME280;41132;47.162;9.470;2022-09-24T11:01:23;96233.66;;;14.69;100.00
55271;BME280;41132;47.162;9.470;2022-09-24T11:09:46;96238.03;;;14.76;100.00
55271;BME280;41132;47.162;9.470;2022-09-24T11:15:43;96246.88;;;14.69;100.00
55271;BME280;41132;47.162;9.470;2022-09-24T11:21:18;96252.13;;;14.83;100.00
55271;BME280;41132;47.162;9.470;2022-09-24T11:29:22;96237.06;;;14.48;100.00
55271;BME280;41132;47.162;9.470;2022-09-24T11:32:12;96239.63;;;14.56;100.00
55271;BME280;41132;47.162;9.470;2022-09-24T11:37:51;96238.97;;;14.54;100.00
55271;BME280;41132;47.162;9.470;2022-09-24T11:54:39;96229.31;;;14.46;100.00
55271;BME280;41132;47.162;9.470;2022-09-24T11:57:14;96225.06;;;14.45;100.00
55271;BME280;41132;47.162;9.470;2022-09-24T12:00:05;96218.84;;;14.53;100.00
55271;BME280;41132;47.162;9.470;2022-09-24T12:02:40;96222.22;;;14.61;100.00
55271;BME280;41132;47.162;9.470;2022-09-24T12:05:16;96222.28;;;14.68;100.00
55271;BME280;41132;47.162;9.470;2022-09-24T12:08:08;96219.88;;;14.73;100.00
55271;BME280;41132;47.162;9.470;2022-09-24T12:10:59;96217.75;;;14.83;100.00
55271;BME280;41132;47.162;9.470;2022-09-24T12:13:35;96225.38;;;14.93;100.00
55271;BME280;41132;47.162;9.470;2022-09-24T12:16:12;96216.31;;;14.81;100.00
55271;BME280;41132;47.162;9.470;2022-09-24T12:18:46;96217.88;;;14.75;100.00
55271;BME280;41132;47.162;9.470;2022-09-24T12:21:36;96209.53;;;14.72;100.00
55271;BME280;41132;47.162;9.470;2022-09-24T12:24:20;96210.28;;;14.66;100.00
55271;BME280;41132;47.162;9.470;2022-09-24T12:26:48;96208.44;;;14.66;100.00
55271;BME280;41132;47.162;9.470;2022-09-24T12:29:45;96212.84;;;14.80;100.00
55271;BME280;41132;47.162;9.470;2022-09-24T12:32:49;96212.97;;;14.72;100.00
55271;BME280;41132;47.162;9.470;2022-09-24T12:37:54;96218.13;;;14.80;100.00
55271;BME280;41132;47.162;9.470;2022-09-24T12:41:00;96214.13;;;14.63;100.00
55271;BME280;41132;47.162;9.470;2022-09-24T12:43:50;96205.38;;;14.63;100.00
55271;BME280;41132;47.162;9.470;2022-09-24T12:46:20;96204.81;;;14.52;100.00
55271;BME280;41132;47.162;9.470;2022-09-24T12:48:48;96205.84;;;14.51;100.00
55271;BME280;41132;47.162;9.470;2022-09-24T12:51:14;96193.94;;;14.40;100.00
55271;BME280;41132;47.162;9.470;2022-09-24T12:53:41;96203.56;;;14.63;100.00
55271;BME280;41132;47.162;9.470;2022-09-24T12:56:09;96196.38;;;14.57;100.00
55271;BME280;41132;47.162;9.470;2022-09-24T12:58:43;96195.94;;;14.75;100.00
55271;BME280;41132;47.162;9.470;2022-09-24T13:01:13;96196.63;;;14.62;100.00
55271;BME280;41132;47.162;9.470;2022-09-24T13:06:41;96195.41;;;14.65;100.00
55271;BME280;41132;47.162;9.470;2022-09-24T13:09:40;96195.75;;;14.55;100.00
55271;BME280;41132;47.162;9.470;2022-09-24T13:14:41;96182.22;;;14.65;100.00
55271;BME280;41132;47.162;9.470;2022-09-24T13:17:08;96181.84;;;14.68;100.00
55271;BME280;41132;47.162;9.470;2022-09-24T13:19:44;96185.31;;;14.68;100.00
55271;BME280;41132;47.162;9.470;2022-09-24T13:22:31;96198.56;;;14.75;100.00
55271;BME280;41132;47.162;9.470;2022-09-24T13:30:18;96189.50;;;14.84;100.00
55271;BME280;41132;47.162;9.470;2022-09-24T13:35:46;96171.19;;;14.82;100.00
55271;BME280;41132;47.162;9.470;2022-09-24T13:38:15;96173.09;;;14.89;100.00
55271;BME280;41132;47.162;9.470;2022-09-24T13:40:49;96167.06;;;14.95;100.00
55271;BME280;41132;47.162;9.470;2022-09-24T13:43:29;96184.28;;;14.91;100.00
55271;BME280;41132;47.162;9.470;2022-09-24T13:45:57;96183.22;;;14.85;100.00
55271;BME280;41132;47.162;9.470;2022-09-24T13:48:34;96165.97;;;14.89;100.00
55271;BME280;41132;47.162;9.470;2022-09-24T13:51:03;96176.59;;;14.96;100.00
55271;BME280;41132;47.162;9.470;2022-09-24T13:53:36;96166.69;;;14.76;100.00
55271;BME280;41132;47.162;9.470;2022-09-24T13:56:14;96169.75;;;14.80;100.00
55271;BME280;41132;47.162;9.470;2022-09-24T13:58:41;96180.41;;;14.65;100.00
55271;BME280;41132;47.162;9.470;2022-09-24T14:03:40;96162.34;;;14.69;100.00
55271;BME280;41132;47.162;9.470;2022-09-24T14:06:14;96171.72;;;14.71;100.00
55271;BME280;41132;47.162;9.470;2022-09-24T14:08:42;96166.81;;;14.68;100.00
55271;BME280;41132;47.162;9.470;2022-09-24T14:11:20;96162.41;;;14.75;100.00
55271;BME280;41132;47.162;9.470;2022-09-24T14:13:48;96160.41;;;14.77;100.00
55271;BME280;41132;47.162;9.470;2022-09-24T14:16:17;96160.78;;;14.74;100.00
55271;BME280;41132;47.162;9.470;2022-09-24T14:18:43;96169.00;;;14.65;100.00
55271;BME280;41132;47.162;9.470;2022-09-24T14:21:21;96156.31;;;14.75;100.00
55271;BME280;41132;47.162;9.470;2022-09-24T14:23:51;96151.47;;;14.78;100.00
55271;BME280;41132;47.162;9.470;2022-09-24T14:26:33;96154.47;;;14.75;100.00
55271;BME280;41132;47.162;9.470;2022-09-24T14:29:07;96156.78;;;14.85;100.00
55271;BME280;41132;47.162;9.470;2022-09-24T14:34:24;96138.75;;;14.89;100.00